Time;durP1;ratioP1;P1;durP2;ratioP2;P2;SDS_P1;SDS_P2;PMS_P1;PMS_P2;Temp;Humidity;BMP_temperature;BMP_pressure;BME280_temperature;BME280_humidity;BME280_pressure;Samples;Min_cycle;Max_cycle;Signal;HPM_P1;HPM_P2
2021/07/22 00:00:40;;;;;;;5.45;3.47;;;24.80;52.40;;;;;;5071711;28;20040;-48
2021/07/22 00:03:06;;;;;;;6.13;4.13;;;24.80;52.40;;;;;;5056371;28;20036;-43
2021/07/22 00:05:31;;;;;;;7.40;4.10;;;24.80;52.40;;;;;;5055364;28;20025;-44
2021/07/22 00:08:01;;;;;;;6.22;4.18;;;24.80;52.40;;;;;;5074065;28;20469;-42
2021/07/22 00:10:27;;;;;;;6.05;4.00;;;24.80;52.40;;;;;;5059332;28;20041;-44
2021/07/22 00:12:53;;;;;;;8.43;4.13;;;24.70;52.30;;;;;;5072906;28;20045;-42
2021/07/22 00:15:18;;;;;;;5.60;4.25;;;24.70;52.30;;;;;;5071865;28;20031;-55
2021/07/22 00:17:44;;;;;;;4.80;3.85;;;24.70;52.40;;;;;;5063266;28;20028;-42
2021/07/22 00:20:10;;;;;;;5.50;4.03;;;24.60;52.20;;;;;;5071012;28;20036;-42
2021/07/22 00:22:39;;;;;;;5.70;4.05;;;24.70;52.40;;;;;;5061869;28;20125;-46
2021/07/22 00:25:06;;;;;;;5.05;4.30;;;24.70;52.20;;;;;;5055236;28;20467;-44
2021/07/22 00:27:32;;;;;;;6.38;4.03;;;24.70;52.20;;;;;;5064467;28;20032;-53
2021/07/22 00:29:57;;;;;;;5.30;3.90;;;24.70;52.10;;;;;;5068954;28;20040;-42
2021/07/22 00:32:23;;;;;;;6.18;4.10;;;24.80;52.30;;;;;;5059794;28;20104;-42
2021/07/22 00:34:49;;;;;;;6.55;4.28;;;24.70;52.20;;;;;;5068121;28;20020;-45
2021/07/22 00:37:15;;;;;;;6.35;3.67;;;24.70;52.20;;;;;;5073044;28;20146;-44
2021/07/22 00:39:40;;;;;;;5.35;3.95;;;24.80;52.20;;;;;;5064378;28;20123;-42
2021/07/22 00:42:06;;;;;;;4.40;3.70;;;24.80;52.30;;;;;;5067163;28;20053;-42
2021/07/22 00:44:31;;;;;;;6.35;3.80;;;24.80;52.90;;;;;;5070187;28;20078;-43
2021/07/22 00:46:57;;;;;;;7.20;4.18;;;24.70;52.20;;;;;;5078944;28;20036;-45
2021/07/22 00:49:23;;;;;;;6.07;4.10;;;24.70;52.30;;;;;;5067235;28;20192;-48
2021/07/22 00:51:48;;;;;;;6.00;4.13;;;24.80;52.40;;;;;;5061688;28;20089;-44
2021/07/22 00:54:14;;;;;;;6.25;4.20;;;24.80;52.40;;;;;;5071156;28;20381;-43
2021/07/22 00:56:40;;;;;;;6.43;4.25;;;24.70;52.20;;;;;;5065840;28;20024;-42
2021/07/22 00:59:05;;;;;;;5.63;4.15;;;24.70;52.50;;;;;;5068986;28;20032;-43
2021/07/22 01:01:31;;;;;;;5.32;3.95;;;24.70;52.50;;;;;;5062369;28;20044;-45
2021/07/22 01:03:57;;;;;;;4.85;3.67;;;24.70;52.30;;;;;;5068841;28;20382;-42
2021/07/22 01:06:23;;;;;;;6.38;4.03;;;24.70;52.50;;;;;;5055186;28;20485;-43
2021/07/22 01:08:49;;;;;;;4.82;3.70;;;24.70;52.50;;;;;;5066404;28;20103;-43
2021/07/22 01:11:14;;;;;;;5.40;3.78;;;24.70;52.40;;;;;;5071692;28;20116;-42
2021/07/22 01:13:40;;;;;;;5.40;3.95;;;24.70;52.60;;;;;;5064275;28;20024;-51
2021/07/22 01:16:06;;;;;;;6.28;4.28;;;24.80;52.50;;;;;;5062565;28;20033;-47
2021/07/22 01:18:32;;;;;;;5.95;4.50;;;24.70;52.30;;;;;;5076168;28;20370;-42
2021/07/22 01:20:58;;;;;;;5.22;4.68;;;24.70;52.30;;;;;;5071628;28;20043;-42
2021/07/22 01:23:23;;;;;;;6.30;4.20;;;24.70;52.50;;;;;;5047777;28;20036;-46
2021/07/22 01:25:50;;;;;;;6.20;4.50;;;24.70;52.60;;;;;;5069262;28;20056;-42
2021/07/22 01:28:16;;;;;;;6.93;4.13;;;24.70;52.60;;;;;;5058418;28;20028;-42
2021/07/22 01:30:42;;;;;;;6.63;4.20;;;24.60;52.50;;;;;;5062965;28;20131;-43
2021/07/22 01:33:08;;;;;;;6.72;4.25;;;24.60;52.60;;;;;;5064719;28;20028;-42
2021/07/22 01:35:33;;;;;;;6.53;4.60;;;24.60;52.60;;;;;;5060959;28;20020;-42
2021/07/22 01:37:59;;;;;;;6.97;4.80;;;24.60;52.60;;;;;;5075446;28;20027;-45
2021/07/22 01:40:25;;;;;;;6.38;4.90;;;24.60;52.70;;;;;;5056486;28;20158;-43
2021/07/22 01:42:50;;;;;;;6.25;4.47;;;24.60;52.70;;;;;;5064697;28;20033;-44
2021/07/22 01:45:16;;;;;;;9.23;5.22;;;24.70;52.70;;;;;;5069191;28;20039;-42
2021/07/22 01:47:41;;;;;;;7.65;4.07;;;24.70;52.70;;;;;;5078580;28;20198;-43
2021/07/22 01:50:09;;;;;;;5.70;3.92;;;24.70;52.70;;;;;;5063252;28;20087;-42
2021/07/22 01:52:34;;;;;;;8.82;4.75;;;24.70;52.60;;;;;;5061580;28;20031;-42
2021/07/22 01:55:00;;;;;;;5.97;4.30;;;24.70;52.70;;;;;;5059780;28;20024;-43
2021/07/22 01:57:26;;;;;;;6.68;4.28;;;24.70;52.90;;;;;;5071047;28;20418;-42
2021/07/22 01:59:53;;;;;;;4.85;4.35;;;24.70;52.80;;;;;;5069040;28;20048;-42
2021/07/22 02:02:18;;;;;;;6.40;4.38;;;24.60;52.80;;;;;;5072402;28;20039;-43
2021/07/22 02:04:44;;;;;;;5.00;4.00;;;24.60;52.80;;;;;;5060359;28;20103;-42
2021/07/22 02:07:10;;;;;;;6.63;4.25;;;24.70;52.80;;;;;;5062321;28;20115;-42
2021/07/22 02:09:37;;;;;;;5.75;4.25;;;24.60;52.80;;;;;;5067306;28;20082;-42
2021/07/22 02:12:03;;;;;;;7.03;4.80;;;24.60;52.90;;;;;;5064871;28;20033;-42
2021/07/22 02:14:29;;;;;;;9.35;4.35;;;24.60;52.80;;;;;;5062897;28;20032;-43
2021/07/22 02:16:55;;;;;;;8.35;4.10;;;24.70;52.90;;;;;;5062659;28;20037;-43
2021/07/22 02:19:21;;;;;;;7.55;4.57;;;24.60;53.00;;;;;;5066533;28;20057;-53
2021/07/22 02:21:46;;;;;;;5.65;4.63;;;24.70;53.60;;;;;;5065008;28;20067;-42
2021/07/22 02:24:13;;;;;;;6.13;4.30;;;24.60;53.10;;;;;;5054553;28;20033;-42
2021/07/22 02:26:39;;;;;;;6.47;4.03;;;24.60;52.90;;;;;;5070766;28;20032;-43
2021/07/22 02:29:06;;;;;;;4.85;4.00;;;24.60;53.10;;;;;;5069296;28;20155;-45
2021/07/22 02:31:32;;;;;;;6.32;4.43;;;24.60;53.00;;;;;;5062911;28;20032;-42
2021/07/22 02:33:57;;;;;;;6.45;4.70;;;24.60;53.00;;;;;;5059932;28;20032;-42
2021/07/22 02:36:23;;;;;;;5.30;3.88;;;24.60;53.00;;;;;;5070760;28;20104;-54
2021/07/22 02:38:49;;;;;;;10.93;4.40;;;24.60;52.90;;;;;;5055747;28;20481;-42
2021/07/22 02:41:14;;;;;;;8.75;4.63;;;24.60;53.00;;;;;;5067913;28;20037;-43
2021/07/22 02:43:41;;;;;;;6.60;4.63;;;24.60;53.00;;;;;;5059200;28;20037;-42
2021/07/22 02:46:07;;;;;;;6.15;3.97;;;24.60;53.10;;;;;;5070119;28;20116;-44
2021/07/22 02:48:33;;;;;;;6.30;4.15;;;24.60;53.10;;;;;;5051001;28;20459;-42
2021/07/22 02:51:00;;;;;;;7.03;4.50;;;24.60;53.20;;;;;;5053920;28;20478;-42
2021/07/22 02:53:27;;;;;;;5.93;4.13;;;24.50;53.10;;;;;;5064361;28;20040;-44
2021/07/22 02:56:00;;;;;;;6.72;4.40;;;24.50;53.10;;;;;;5062822;28;20107;-42
2021/07/22 02:58:29;;;;;;;7.00;4.32;;;24.50;53.20;;;;;;5051612;28;20056;-45
2021/07/22 03:00:55;;;;;;;6.20;4.70;;;24.50;53.20;;;;;;5064734;28;20045;-43
2021/07/22 03:03:22;;;;;;;5.47;4.30;;;24.50;53.20;;;;;;5054151;28;20028;-43
2021/07/22 03:05:47;;;;;;;11.25;4.28;;;24.50;53.20;;;;;;5075767;28;20111;-43
2021/07/22 03:08:13;;;;;;;7.53;4.13;;;24.50;53.20;;;;;;5069809;28;20561;-45
2021/07/22 03:10:40;;;;;;;5.82;4.43;;;24.60;53.20;;;;;;5069665;28;20024;-42
2021/07/22 03:13:05;;;;;;;5.35;4.32;;;24.60;53.20;;;;;;5061242;28;20037;-45
2021/07/22 03:15:31;;;;;;;6.35;4.30;;;24.60;53.20;;;;;;5062814;28;20074;-42
2021/07/22 03:17:57;;;;;;;6.65;4.80;;;24.60;53.20;;;;;;5062083;28;20429;-47
2021/07/22 03:20:23;;;;;;;6.68;4.32;;;24.60;53.20;;;;;;5065417;28;20043;-53
2021/07/22 03:22:49;;;;;;;7.25;5.30;;;24.60;53.30;;;;;;5074443;28;20086;-42
2021/07/22 03:25:14;;;;;;;5.75;4.20;;;24.60;53.20;;;;;;5080701;28;20413;-42
2021/07/22 03:27:40;;;;;;;5.38;4.13;;;24.60;53.20;;;;;;5059039;28;20074;-42
2021/07/22 03:30:07;;;;;;;7.97;4.55;;;24.60;53.30;;;;;;5072769;28;20036;-46
2021/07/22 03:32:32;;;;;;;5.93;4.88;;;24.60;53.30;;;;;;5065434;28;20477;-46
2021/07/22 03:34:58;;;;;;;6.38;4.85;;;24.60;53.50;;;;;;5079178;28;20033;-45
2021/07/22 03:37:23;;;;;;;7.60;4.32;;;24.60;53.40;;;;;;5072438;28;20025;-53
2021/07/22 03:39:49;;;;;;;9.85;4.40;;;24.60;53.30;;;;;;5065831;28;20051;-42
2021/07/22 03:42:15;;;;;;;9.30;4.90;;;24.60;53.40;;;;;;5074836;28;20553;-45
2021/07/22 03:44:40;;;;;;;7.28;4.70;;;24.60;53.40;;;;;;5066666;28;20029;-43
2021/07/22 03:47:06;;;;;;;6.88;4.60;;;24.60;53.50;;;;;;5057637;28;20429;-46
2021/07/22 03:49:33;;;;;;;6.50;4.72;;;24.50;53.50;;;;;;5072424;28;20024;-42
2021/07/22 03:51:58;;;;;;;7.22;4.85;;;24.50;53.50;;;;;;5075231;28;20599;-42
2021/07/22 03:54:24;;;;;;;5.53;4.47;;;24.50;53.50;;;;;;5064252;28;20100;-54
2021/07/22 03:56:50;;;;;;;6.22;4.72;;;24.50;53.50;;;;;;5055412;28;20025;-42
2021/07/22 03:59:17;;;;;;;6.65;4.88;;;24.50;53.50;;;;;;5068884;28;20162;-45
2021/07/22 04:01:43;;;;;;;5.35;4.20;;;24.50;53.50;;;;;;5071075;28;20040;-45
2021/07/22 04:04:09;;;;;;;5.38;4.07;;;24.50;53.50;;;;;;5067395;28;20052;-42
2021/07/22 04:06:41;;;;;;;5.53;4.85;;;24.60;53.60;;;;;;5063448;28;20079;-43
2021/07/22 04:09:07;;;;;;;7.88;5.03;;;24.50;53.60;;;;;;5061949;28;20025;-47
2021/07/22 04:11:35;;;;;;;4.90;4.00;;;24.50;53.60;;;;;;5073190;28;20354;-43
2021/07/22 04:14:01;;;;;;;5.30;4.38;;;24.50;53.60;;;;;;5060355;28;20043;-47
2021/07/22 04:16:26;;;;;;;6.45;5.05;;;24.50;53.70;;;;;;5069926;28;20467;-54
2021/07/22 04:18:52;;;;;;;6.70;4.53;;;24.50;53.70;;;;;;5063063;28;20486;-42
2021/07/22 04:21:18;;;;;;;7.68;4.53;;;24.50;53.70;;;;;;5059369;28;20112;-42
2021/07/22 04:23:43;;;;;;;5.95;4.25;;;24.50;53.70;;;;;;5068538;28;20035;-42
2021/07/22 04:26:16;;;;;;;6.53;4.38;;;24.60;53.70;;;;;;5063848;28;20079;-43
2021/07/22 04:28:44;;;;;;;5.65;4.43;;;24.50;53.70;;;;;;5065140;28;20035;-42
2021/07/22 04:31:15;;;;;;;5.88;4.38;;;24.50;53.70;;;;;;5072223;28;20086;-42
2021/07/22 04:33:41;;;;;;;5.60;4.40;;;24.50;53.70;;;;;;5070981;28;20036;-42
2021/07/22 04:36:06;;;;;;;8.05;5.22;;;24.50;53.80;;;;;;5066237;28;20028;-46
2021/07/22 04:38:34;;;;;;;6.80;4.72;;;24.50;53.80;;;;;;5057381;28;20033;-42
2021/07/22 04:41:02;;;;;;;6.55;4.75;;;24.50;53.80;;;;;;5072835;28;20029;-41
2021/07/22 04:43:28;;;;;;;6.50;4.40;;;24.50;53.80;;;;;;5070068;28;20088;-53
2021/07/22 04:45:53;;;;;;;6.68;4.95;;;24.50;53.80;;;;;;5062283;28;20029;-41
2021/07/22 04:48:19;;;;;;;5.82;4.35;;;24.50;53.80;;;;;;5058570;28;20474;-42
2021/07/22 04:50:44;;;;;;;7.68;4.68;;;24.50;53.80;;;;;;5069631;28;20074;-42
2021/07/22 04:53:10;;;;;;;6.80;4.25;;;24.50;53.80;;;;;;5062977;28;20028;-42
2021/07/22 04:55:36;;;;;;;7.88;4.53;;;24.60;53.90;;;;;;5063290;28;20033;-42
2021/07/22 04:58:02;;;;;;;6.60;5.03;;;24.50;53.90;;;;;;5062719;28;20054;-42
2021/07/22 05:00:28;;;;;;;7.45;4.78;;;24.50;53.90;;;;;;5058130;28;20186;-53
2021/07/22 05:03:00;;;;;;;7.60;4.70;;;24.50;53.90;;;;;;5077845;28;20036;-42
2021/07/22 05:05:27;;;;;;;6.97;5.13;;;24.50;53.90;;;;;;5062103;28;20044;-48
2021/07/22 05:07:53;;;;;;;7.80;4.93;;;24.50;53.80;;;;;;5061976;28;20167;-42
2021/07/22 05:10:19;;;;;;;6.35;4.50;;;24.50;54.60;;;;;;5061729;28;20504;-42
2021/07/22 05:12:44;;;;;;;8.93;5.32;;;24.50;54.50;;;;;;5062827;28;20482;-42
2021/07/22 05:15:11;;;;;;;6.72;4.72;;;24.50;53.90;;;;;;5065577;28;20035;-42
2021/07/22 05:17:37;;;;;;;5.82;4.68;;;24.60;53.90;;;;;;5062461;28;20548;-42
2021/07/22 05:20:04;;;;;;;6.85;4.72;;;24.50;53.90;;;;;;5064224;28;20051;-43
2021/07/22 05:22:29;;;;;;;7.05;4.68;;;24.50;53.90;;;;;;5066145;28;20116;-54
2021/07/22 05:24:55;;;;;;;7.93;5.50;;;24.60;54.00;;;;;;5066808;28;20169;-42
2021/07/22 05:27:21;;;;;;;5.82;4.70;;;24.50;53.90;;;;;;5055643;28;20037;-42
2021/07/22 05:29:46;;;;;;;7.35;4.90;;;24.50;53.90;;;;;;5060530;28;20029;-42
2021/07/22 05:32:15;;;;;;;8.07;4.97;;;24.50;53.80;;;;;;5067933;28;20461;-41
2021/07/22 05:34:41;;;;;;;9.43;5.25;;;24.50;53.90;;;;;;5056971;28;20094;-48
2021/07/22 05:37:15;;;;;;;9.85;5.60;;;24.60;53.90;;;;;;5053282;28;20064;-42
2021/07/22 05:39:41;;;;;;;14.13;7.05;;;24.50;54.00;;;;;;5055678;28;20032;-42
2021/07/22 05:42:07;;;;;;;14.27;8.48;;;23.90;53.70;;;;;;5077812;28;20043;-43
2021/07/22 05:44:32;;;;;;;13.15;7.75;;;23.30;55.10;;;;;;5060801;28;20029;-52
2021/07/22 05:46:58;;;;;;;15.00;7.43;;;23.00;56.10;;;;;;5060005;28;20078;-41
2021/07/22 05:49:23;;;;;;;15.13;7.55;;;22.90;56.40;;;;;;5065947;28;20458;-41
2021/07/22 05:51:49;;;;;;;11.93;6.97;;;22.80;57.00;;;;;;5060446;28;20053;-42
2021/07/22 05:54:15;;;;;;;10.32;7.53;;;22.60;57.30;;;;;;5061765;28;20025;-41
2021/07/22 05:56:40;;;;;;;16.58;7.40;;;22.60;57.50;;;;;;5064242;28;20017;-41
2021/07/22 05:59:06;;;;;;;13.07;7.65;;;22.80;57.00;;;;;;5064140;28;20032;-41
2021/07/22 06:01:32;;;;;;;12.60;7.97;;;22.70;57.20;;;;;;5071997;28;20521;-53
2021/07/22 06:03:57;;;;;;;17.52;8.35;;;22.70;57.30;;;;;;5068121;28;20025;-43
2021/07/22 06:06:23;;;;;;;13.77;8.95;;;22.60;57.50;;;;;;5057837;28;20028;-42
2021/07/22 06:08:49;;;;;;;20.27;9.18;;;22.70;57.60;;;;;;5068508;28;20028;-43
2021/07/22 06:11:15;;;;;;;11.60;8.18;;;22.60;57.70;;;;;;5046841;28;20033;-42
2021/07/22 06:13:42;;;;;;;14.57;9.02;;;22.60;58.00;;;;;;5058485;28;20025;-43
2021/07/22 06:16:10;;;;;;;11.65;7.25;;;22.50;58.20;;;;;;5060431;28;20381;-43
2021/07/22 06:18:36;;;;;;;15.20;8.10;;;22.50;58.20;;;;;;5054019;28;20534;-43
2021/07/22 06:21:02;;;;;;;14.73;7.55;;;22.50;58.00;;;;;;5073272;28;20119;-43
2021/07/22 06:23:27;;;;;;;12.70;8.45;;;22.50;58.10;;;;;;5064040;28;20094;-42
2021/07/22 06:25:57;;;;;;;14.32;8.05;;;22.50;57.90;;;;;;5060748;28;20029;-43
2021/07/22 06:28:23;;;;;;;19.83;8.82;;;22.50;58.20;;;;;;5066255;28;20079;-43
2021/07/22 06:30:50;;;;;;;15.52;8.48;;;22.40;58.40;;;;;;5071560;28;20393;-43
2021/07/22 06:33:16;;;;;;;17.35;9.00;;;22.40;58.40;;;;;;5072355;28;20419;-43
2021/07/22 06:35:41;;;;;;;14.35;8.57;;;22.40;58.20;;;;;;5061703;28;20107;-48
2021/07/22 06:38:07;;;;;;;14.93;9.00;;;22.30;58.50;;;;;;5060295;28;20029;-45
2021/07/22 06:40:35;;;;;;;12.82;8.20;;;22.40;58.60;;;;;;5063931;28;20119;-44
2021/07/22 06:43:01;;;;;;;15.43;8.38;;;22.40;58.50;;;;;;5060223;28;20086;-41
2021/07/22 06:45:27;;;;;;;14.13;8.13;;;22.50;58.60;;;;;;5068293;28;20020;-41
2021/07/22 06:47:52;;;;;;;15.10;9.40;;;22.60;58.40;;;;;;5068160;28;20039;-43
2021/07/22 06:50:18;;;;;;;14.38;7.72;;;22.50;58.20;;;;;;5064177;28;20025;-43
2021/07/22 06:52:44;;;;;;;13.90;8.10;;;22.50;58.20;;;;;;5069137;28;20458;-43
2021/07/22 06:55:10;;;;;;;15.02;8.30;;;22.50;58.00;;;;;;5063975;28;20111;-46
2021/07/22 06:57:36;;;;;;;14.35;7.60;;;22.50;57.70;;;;;;5061206;28;20036;-51
2021/07/22 07:00:03;;;;;;;16.40;7.40;;;22.60;57.80;;;;;;5059875;28;20111;-43
2021/07/22 07:02:29;;;;;;;12.15;7.50;;;22.60;57.30;;;;;;5061830;28;20118;-43
2021/07/22 07:04:54;;;;;;;17.40;7.72;;;22.60;57.00;;;;;;5067588;28;20059;-44
2021/07/22 07:07:20;;;;;;;14.27;8.52;;;22.50;57.20;;;;;;5058274;28;20021;-42
2021/07/22 07:09:46;;;;;;;12.23;7.80;;;22.60;58.00;;;;;;5063638;28;20055;-47
2021/07/22 07:12:11;;;;;;;17.00;8.25;;;22.60;58.20;;;;;;5065294;28;20059;-42
2021/07/22 07:14:37;;;;;;;14.85;7.60;;;22.60;58.10;;;;;;5062995;28;20037;-51
2021/07/22 07:17:03;;;;;;;12.30;8.15;;;22.60;57.60;;;;;;5064371;28;20029;-48
2021/07/22 07:19:29;;;;;;;21.23;10.38;;;22.60;57.60;;;;;;5067661;28;20457;-41
2021/07/22 07:21:55;;;;;;;12.90;7.78;;;22.60;58.10;;;;;;5066326;28;20044;-41
2021/07/22 07:24:21;;;;;;;16.35;8.05;;;22.60;58.20;;;;;;5061859;28;20033;-41
2021/07/22 07:26:46;;;;;;;15.43;8.98;;;22.70;58.30;;;;;;5064566;28;20029;-45
2021/07/22 07:29:12;;;;;;;16.45;8.57;;;22.70;58.40;;;;;;5068680;28;20086;-41
2021/07/22 07:31:38;;;;;;;17.05;9.25;;;22.70;58.20;;;;;;5055686;28;20103;-51
2021/07/22 07:34:04;;;;;;;18.95;9.00;;;22.70;57.80;;;;;;5058327;28;20478;-41
2021/07/22 07:36:30;;;;;;;14.75;8.90;;;22.80;57.80;;;;;;5053500;28;20029;-41
2021/07/22 07:38:55;;;;;;;18.30;10.15;;;22.80;57.80;;;;;;5061144;28;20043;-43
2021/07/22 07:41:21;;;;;;;15.70;9.13;;;22.80;57.80;;;;;;5053168;28;20111;-43
2021/07/22 07:43:47;;;;;;;18.30;9.27;;;22.80;57.60;;;;;;5054285;28;20148;-43
2021/07/22 07:46:12;;;;;;;17.42;9.85;;;22.80;57.50;;;;;;5061892;28;20027;-41
2021/07/22 07:48:38;;;;;;;14.48;10.00;;;22.80;58.10;;;;;;5055074;28;20087;-52
2021/07/22 07:51:05;;;;;;;20.52;10.30;;;22.80;57.30;;;;;;5050208;28;20029;-42
2021/07/22 07:53:31;;;;;;;19.20;10.48;;;22.80;57.20;;;;;;5064989;28;20051;-46
2021/07/22 07:55:57;;;;;;;21.83;10.15;;;22.90;57.20;;;;;;5052621;28;20025;-41
2021/07/22 07:58:23;;;;;;;18.30;9.13;;;22.80;57.10;;;;;;5055744;28;20086;-43
2021/07/22 08:00:49;;;;;;;15.07;9.38;;;22.90;57.20;;;;;;5089478;28;20056;-41
2021/07/22 08:03:21;;;;;;;18.50;8.90;;;22.90;56.70;;;;;;5076461;28;20359;-42
2021/07/22 08:05:47;;;;;;;17.48;9.48;;;22.90;56.30;;;;;;5075370;28;20032;-41
2021/07/22 08:08:13;;;;;;;15.98;9.07;;;22.90;56.10;;;;;;5050421;28;20033;-45
2021/07/22 08:10:43;;;;;;;16.40;8.52;;;22.90;56.60;;;;;;5062992;28;20024;-49
2021/07/22 08:13:09;;;;;;;16.63;8.75;;;22.90;56.00;;;;;;5056998;28;20521;-43
2021/07/22 08:15:36;;;;;;;12.15;7.97;;;23.00;56.00;;;;;;5070031;28;20366;-42
2021/07/22 08:18:02;;;;;;;18.15;7.82;;;23.00;56.40;;;;;;5072349;28;20058;-48
2021/07/22 08:20:27;;;;;;;16.40;8.20;;;23.10;56.60;;;;;;5073719;28;20029;-42
2021/07/22 08:22:53;;;;;;;10.77;7.07;;;23.10;56.30;;;;;;5062715;28;20427;-42
2021/07/22 08:25:19;;;;;;;15.63;8.43;;;23.20;56.40;;;;;;5066466;28;20031;-42
2021/07/22 08:27:45;;;;;;;11.30;6.35;;;23.20;55.90;;;;;;5067077;28;20021;-42
2021/07/22 08:30:11;;;;;;;10.23;6.18;;;23.20;55.40;;;;;;5060938;28;20078;-42
2021/07/22 08:32:37;;;;;;;9.82;5.80;;;23.20;55.30;;;;;;5064784;28;20037;-47
2021/07/22 08:35:03;;;;;;;10.50;6.20;;;23.20;55.00;;;;;;5063309;28;20035;-43
2021/07/22 08:37:29;;;;;;;11.40;5.72;;;23.20;54.70;;;;;;5071601;28;20035;-43
2021/07/22 08:40:00;;;;;;;7.15;5.45;;;23.20;54.70;;;;;;5043900;28;20033;-42
2021/07/22 08:42:27;;;;;;;9.13;5.55;;;23.30;54.50;;;;;;5061436;28;20040;-43
2021/07/22 08:44:54;;;;;;;7.40;5.22;;;23.60;54.30;;;;;;5061209;28;20033;-43
2021/07/22 08:47:20;;;;;;;8.57;5.22;;;23.80;54.10;;;;;;5073616;28;20028;-46
2021/07/22 08:49:45;;;;;;;7.80;4.45;;;23.90;53.80;;;;;;5074271;28;20044;-42
2021/07/22 08:52:12;;;;;;;11.98;6.35;;;24.00;53.80;;;;;;5071794;28;20122;-44
2021/07/22 08:54:39;;;;;;;7.57;5.13;;;24.10;53.80;;;;;;5062860;28;20151;-51
2021/07/22 08:57:09;;;;;;;10.43;5.05;;;24.10;53.80;;;;;;5061035;28;20032;-42
2021/07/22 08:59:35;;;;;;;7.05;4.97;;;24.20;53.90;;;;;;5070615;28;20059;-43
2021/07/22 09:02:02;;;;;;;8.27;5.28;;;24.20;53.90;;;;;;5056214;28;20033;-44
2021/07/22 09:04:47;;;;;;;9.07;4.88;;;24.20;53.90;;;;;;5071884;28;20037;-43
2021/07/22 09:07:13;;;;;;;6.45;4.60;;;24.20;53.90;;;;;;5067200;28;20032;-44
2021/07/22 09:09:39;;;;;;;8.38;5.18;;;24.20;54.00;;;;;;5068219;28;20557;-54
2021/07/22 09:12:05;;;;;;;8.70;5.00;;;24.30;54.10;;;;;;5059128;28;20119;-43
2021/07/22 09:14:31;;;;;;;7.28;5.22;;;24.30;54.10;;;;;;5061061;28;20458;-43
2021/07/22 09:16:58;;;;;;;7.13;4.78;;;24.30;54.70;;;;;;5063766;28;20070;-44
2021/07/22 09:19:30;;;;;;;8.90;4.97;;;24.30;54.10;;;;;;5069648;28;20067;-43
2021/07/22 09:21:55;;;;;;;7.20;4.80;;;24.30;54.10;;;;;;5064413;28;20052;-43
2021/07/22 09:24:21;;;;;;;6.10;4.60;;;24.30;54.10;;;;;;5070709;28;20025;-42
2021/07/22 09:26:50;;;;;;;6.20;4.65;;;24.30;54.10;;;;;;5062990;28;20520;-43
2021/07/22 09:29:17;;;;;;;6.75;4.57;;;24.30;54.10;;;;;;5052416;28;20029;-45
2021/07/22 09:31:43;;;;;;;6.43;5.00;;;24.30;54.20;;;;;;5068534;28;20115;-43
2021/07/22 09:34:16;;;;;;;5.97;4.43;;;24.30;54.30;;;;;;5058713;28;20418;-44
2021/07/22 09:36:42;;;;;;;5.80;4.60;;;24.30;54.20;;;;;;5054332;28;20036;-52
2021/07/22 09:39:29;;;;;;;6.13;4.50;;;24.40;54.20;;;;;;5058536;28;20025;-43
2021/07/22 09:42:06;;;;;;;6.28;4.20;;;24.40;54.30;;;;;;5056213;28;20044;-42
2021/07/22 09:44:37;;;;;;;6.20;4.63;;;24.40;54.30;;;;;;5068032;28;20025;-42
2021/07/22 09:47:05;;;;;;;5.10;4.00;;;24.40;54.30;;;;;;5063261;28;20028;-43
2021/07/22 09:49:49;;;;;;;6.65;4.93;;;24.40;54.30;;;;;;5061238;28;20370;-44
2021/07/22 09:52:17;;;;;;;7.57;4.82;;;24.40;54.30;;;;;;5060052;28;20059;-42
2021/07/22 09:54:43;;;;;;;6.00;4.20;;;24.40;54.30;;;;;;5058554;28;20381;-43
2021/07/22 09:57:19;;;;;;;7.05;4.40;;;24.50;54.40;;;;;;5062388;28;20079;-42
2021/07/22 09:59:46;;;;;;;5.10;4.03;;;24.50;54.30;;;;;;5052635;28;20047;-42
2021/07/22 10:02:17;;;;;;;5.07;4.05;;;24.50;54.30;;;;;;5058389;28;20482;-50
2021/07/22 10:04:45;;;;;;;6.75;4.60;;;24.40;54.30;;;;;;5051576;28;20029;-53
2021/07/22 10:07:13;;;;;;;5.78;4.53;;;24.40;54.30;;;;;;5052825;28;20111;-42
2021/07/22 10:09:41;;;;;;;6.20;4.85;;;24.50;54.30;;;;;;5067065;28;20025;-53
2021/07/22 10:12:07;;;;;;;9.27;4.45;;;24.40;54.30;;;;;;5062185;28;20113;-46
2021/07/22 10:14:34;;;;;;;7.80;4.53;;;24.50;54.30;;;;;;5058551;28;20048;-43
2021/07/22 10:17:03;;;;;;;8.43;4.22;;;24.50;54.30;;;;;;5065459;28;20582;-42
2021/07/22 10:19:31;;;;;;;5.80;4.15;;;24.50;54.30;;;;;;5049464;28;20024;-42
2021/07/22 10:21:57;;;;;;;6.22;4.30;;;24.50;54.30;;;;;;5062644;28;20112;-43
2021/07/22 10:24:23;;;;;;;6.05;4.53;;;24.50;54.30;;;;;;5063074;28;20050;-42
2021/07/22 10:26:51;;;;;;;6.18;4.55;;;24.50;54.30;;;;;;5060120;28;20029;-43
2021/07/22 10:29:17;;;;;;;6.15;4.20;;;24.50;54.30;;;;;;5053355;28;20025;-45
2021/07/22 10:31:46;;;;;;;6.93;4.60;;;24.50;54.40;;;;;;5044096;28;20089;-45
2021/07/22 10:34:15;;;;;;;6.95;4.22;;;24.50;54.40;;;;;;5057152;28;20078;-43
2021/07/22 10:36:44;;;;;;;5.75;4.22;;;24.50;54.40;;;;;;5058544;28;20501;-54
2021/07/22 10:39:09;;;;;;;7.57;4.85;;;24.50;54.30;;;;;;5053545;28;20033;-43
2021/07/22 10:41:38;;;;;;;5.75;4.07;;;24.50;54.30;;;;;;5074253;28;20089;-43
2021/07/22 10:44:32;;;;;;;6.38;4.50;;;24.50;54.40;;;;;;5053932;28;20075;-44
2021/07/22 10:47:05;;;;;;;5.72;4.45;;;24.50;55.00;;;;;;5064526;28;20049;-43
2021/07/22 10:49:40;;;;;;;5.88;4.53;;;24.60;54.50;;;;;;5069865;28;20021;-44
2021/07/22 10:52:07;;;;;;;5.45;4.13;;;24.60;54.70;;;;;;5060026;28;20048;-43
2021/07/22 10:54:43;;;;;;;5.13;3.75;;;24.60;55.50;;;;;;5059691;28;20409;-42
2021/07/22 10:57:38;;;;;;;6.45;4.53;;;24.70;56.20;;;;;;5064543;28;20033;-43
2021/07/22 11:00:09;;;;;;;4.43;3.78;;;24.70;59.00;;;;;;5043512;28;20136;-43
2021/07/22 11:02:42;;;;;;;6.07;4.10;;;24.70;57.80;;;;;;5063974;28;20036;-42
2021/07/22 11:05:09;;;;;;;5.90;4.28;;;24.70;59.00;;;;;;5054393;28;20113;-44
2021/07/22 11:07:36;;;;;;;4.80;3.72;;;24.70;57.50;;;;;;5061035;28;20486;-43
2021/07/22 11:10:02;;;;;;;4.75;4.00;;;24.70;57.80;;;;;;5053953;28;20013;-43
2021/07/22 11:12:45;;;;;;;4.93;4.00;;;24.70;57.50;;;;;;5071571;28;20029;-42
2021/07/22 11:15:16;;;;;;;5.82;4.43;;;24.70;57.80;;;;;;5054933;28;20037;-44
2021/07/22 11:17:44;;;;;;;7.68;4.47;;;24.70;57.70;;;;;;5056274;28;20033;-54
2021/07/22 11:20:40;;;;;;;4.75;3.90;;;24.70;57.80;;;;;;5067304;28;20029;-47
2021/07/22 11:23:13;;;;;;;5.13;4.63;;;24.70;58.20;;;;;;5051494;28;20045;-42
2021/07/22 11:25:45;;;;;;;5.43;4.03;;;24.60;58.50;;;;;;5058298;28;20053;-54
2021/07/22 11:28:12;;;;;;;5.18;4.18;;;24.70;58.60;;;;;;5076400;28;20430;-44
2021/07/22 11:30:37;;;;;;;5.93;3.92;;;24.60;58.70;;;;;;5059632;28;20033;-44
2021/07/22 11:33:16;;;;;;;5.47;3.90;;;24.60;58.70;;;;;;5064150;28;20032;-44
2021/07/22 11:35:55;;;;;;;6.97;5.00;;;24.60;58.70;;;;;;5059021;28;20035;-53
2021/07/22 11:38:20;;;;;;;4.47;3.40;;;24.60;58.60;;;;;;5074237;28;20104;-42
2021/07/22 11:40:46;;;;;;;4.90;4.15;;;24.70;58.50;;;;;;5073122;28;20127;-42
2021/07/22 11:43:12;;;;;;;6.15;4.53;;;24.60;58.30;;;;;;5075502;28;20052;-42
2021/07/22 11:45:44;;;;;;;4.75;4.07;;;24.70;58.20;;;;;;5075526;28;20032;-42
2021/07/22 11:48:25;;;;;;;6.65;4.38;;;24.70;58.20;;;;;;5074882;28;20539;-42
2021/07/22 11:51:05;;;;;;;6.63;4.10;;;24.70;58.20;;;;;;5074330;28;20037;-43
2021/07/22 11:53:31;;;;;;;5.72;4.32;;;24.60;58.30;;;;;;5084545;28;20044;-43
2021/07/22 11:56:00;;;;;;;5.18;4.18;;;24.60;58.10;;;;;;5073982;28;20075;-43
2021/07/22 11:58:26;;;;;;;4.22;3.55;;;24.70;58.10;;;;;;5074622;28;20078;-42
2021/07/22 12:00:53;;;;;;;4.75;3.80;;;24.70;58.10;;;;;;5074170;28;20426;-42
2021/07/22 12:03:23;;;;;;;5.50;4.03;;;24.70;58.00;;;;;;5074731;28;20074;-43
2021/07/22 12:05:49;;;;;;;5.55;4.15;;;24.70;57.90;;;;;;5073608;28;20078;-42
2021/07/22 12:08:20;;;;;;;5.90;3.90;;;24.70;57.90;;;;;;5074495;28;20029;-42
2021/07/22 12:10:49;;;;;;;6.03;4.30;;;24.70;57.80;;;;;;5068933;28;20127;-45
2021/07/22 12:13:15;;;;;;;7.43;4.43;;;24.70;57.80;;;;;;5074163;28;20107;-43
2021/07/22 12:15:42;;;;;;;5.25;4.45;;;24.60;57.70;;;;;;5074125;28;20021;-54
2021/07/22 12:18:09;;;;;;;4.97;3.83;;;24.70;57.70;;;;;;5074779;28;20035;-42
2021/07/22 12:20:35;;;;;;;4.90;4.25;;;24.70;57.70;;;;;;5074309;28;20032;-42
2021/07/22 12:23:28;;;;;;;4.88;3.80;;;24.70;57.60;;;;;;5073635;28;20024;-45
2021/07/22 12:25:58;;;;;;;4.93;4.15;;;24.70;57.50;;;;;;5048164;28;20080;-46
2021/07/22 12:28:24;;;;;;;5.32;4.80;;;24.70;57.40;;;;;;5044120;28;20498;-43
2021/07/22 12:30:50;;;;;;;6.10;4.40;;;24.70;57.30;;;;;;5073448;28;20035;-42
2021/07/22 12:33:24;;;;;;;6.38;4.38;;;24.70;57.30;;;;;;5073242;28;20075;-44
2021/07/22 12:35:50;;;;;;;5.47;3.97;;;24.70;57.30;;;;;;5061997;28;20029;-43
2021/07/22 12:38:19;;;;;;;5.10;4.53;;;24.70;57.30;;;;;;5065369;28;20037;-43
2021/07/22 12:40:49;;;;;;;5.15;3.80;;;24.70;57.30;;;;;;5061840;28;20178;-43
2021/07/22 12:43:20;;;;;;;5.15;4.00;;;24.70;57.10;;;;;;5056274;28;20032;-42